EUS15GC EGPH-EHAM
Flight info
| Callsign | EUS15GC |
|---|---|
| Flight time | N/A |
| Altitude | 30000 |
| Route | TLA Y96 OTBUN/N0449F370 DCT ERKIT N110 DOLAS L603 LAMSO |
| Aircraft | B738/M-SDE2E3FGHIRWXY/LB1 |
Departure
| Time | 2026-05-04 23:42 |
|---|---|
| Airport | Edinburgh Airport (EGPH) |
Arrival
| Time | N/A |
|---|---|
| Airport | Amsterdam Airport Schiphol (EHAM) |
| Time | Latitude | Longitude | Altitude | Speed | Heading |
|---|---|---|---|---|---|
| 2026-05-04 22:35 | 55.94704 | -3.36618 | 111 ft | 0 kts | 89° |
| 2026-05-04 23:33 | 55.94704 | -3.36643 | 111 ft | 2 kts | 89° |
| 2026-05-04 23:34 | 55.94704 | -3.36672 | 111 ft | 2 kts | 84° |
| 2026-05-04 23:34 | 55.94700 | -3.36700 | 111 ft | 2 kts | 39° |
| 2026-05-04 23:34 | 55.94691 | -3.36708 | 108 ft | 1 kts | 359° |
| 2026-05-04 23:34 | 55.94683 | -3.36708 | 109 ft | 1 kts | 358° |
| 2026-05-04 23:35 | 55.94679 | -3.36707 | 110 ft | 0 kts | 357° |
| 2026-05-04 23:37 | 55.94680 | -3.36707 | 111 ft | 0 kts | 357° |
| 2026-05-04 23:38 | 55.94684 | -3.36708 | 111 ft | 4 kts | 356° |
| 2026-05-04 23:38 | 55.94767 | -3.36761 | 111 ft | 13 kts | 344° |
| 2026-05-04 23:38 | 55.94814 | -3.36781 | 111 ft | 0 kts | 358° |
| 2026-05-04 23:39 | 55.94893 | -3.36805 | 110 ft | 16 kts | 335° |
| 2026-05-04 23:39 | 55.94952 | -3.36790 | 111 ft | 12 kts | 46° |
| 2026-05-04 23:39 | 55.95038 | -3.36573 | 111 ft | 32 kts | 56° |
| 2026-05-04 23:39 | 55.95181 | -3.36147 | 111 ft | 47 kts | 59° |
| 2026-05-04 23:40 | 55.95281 | -3.35851 | 111 ft | 25 kts | 58° |
| 2026-05-04 23:40 | 55.95393 | -3.35520 | 110 ft | 34 kts | 58° |
| 2026-05-04 23:40 | 55.95481 | -3.35429 | 112 ft | 0 kts | 334° |
| 2026-05-04 23:40 | 55.95484 | -3.35432 | 112 ft | 4 kts | 334° |
| 2026-05-04 23:41 | 55.95544 | -3.35498 | 112 ft | 16 kts | 318° |
| 2026-05-04 23:41 | 55.95535 | -3.35673 | 113 ft | 36 kts | 240° |
| 2026-05-04 23:41 | 55.95204 | -3.36646 | 111 ft | 142 kts | 240° |
| 2026-05-04 23:41 | 55.94605 | -3.38480 | 682 ft | 190 kts | 240° |
| 2026-05-04 23:42 | 55.93929 | -3.40501 | 2189 ft | 185 kts | 240° |
| 2026-05-04 23:42 | 55.93205 | -3.42560 | 3178 ft | 210 kts | 240° |
| 2026-05-04 23:42 | 55.92384 | -3.44904 | 3705 ft | 230 kts | 240° |
| 2026-05-04 23:42 | 55.91521 | -3.47375 | 4396 ft | 238 kts | 240° |
| 2026-05-04 23:43 | 55.90644 | -3.49898 | 5154 ft | 241 kts | 240° |
| 2026-05-04 23:43 | 55.89782 | -3.52468 | 5754 ft | 241 kts | 242° |
| 2026-05-04 23:43 | 55.88936 | -3.55065 | 5986 ft | 243 kts | 242° |
| 2026-05-04 23:43 | 55.88011 | -3.57606 | 5985 ft | 247 kts | 229° |
| 2026-05-04 23:44 | 55.86540 | -3.59153 | 6003 ft | 251 kts | 196° |
| 2026-05-04 23:44 | 55.84798 | -3.59106 | 6005 ft | 256 kts | 164° |
| 2026-05-04 23:44 | 55.83305 | -3.57420 | 6004 ft | 259 kts | 131° |
| 2026-05-04 23:44 | 55.82339 | -3.54724 | 6009 ft | 259 kts | 119° |
| 2026-05-04 23:45 | 55.81146 | -3.52364 | 5984 ft | 260 kts | 150° |
| 2026-05-04 23:45 | 55.79447 | -3.51210 | 6012 ft | 270 kts | 165° |
| 2026-05-04 23:45 | 55.77612 | -3.50258 | 5979 ft | 278 kts | 165° |
| 2026-05-04 23:45 | 55.75751 | -3.49275 | 5996 ft | 278 kts | 164° |
| 2026-05-04 23:46 | 55.73899 | -3.48279 | 5995 ft | 278 kts | 164° |
| 2026-05-04 23:46 | 55.72054 | -3.47278 | 5998 ft | 277 kts | 164° |
| 2026-05-04 23:46 | 55.70209 | -3.46275 | 6017 ft | 278 kts | 164° |
| 2026-05-04 23:46 | 55.68359 | -3.45272 | 6003 ft | 277 kts | 164° |
| 2026-05-04 23:47 | 55.66510 | -3.44269 | 6007 ft | 278 kts | 164° |
| 2026-05-04 23:47 | 55.64661 | -3.43268 | 6009 ft | 279 kts | 164° |
| 2026-05-04 23:47 | 55.62826 | -3.42274 | 6006 ft | 279 kts | 164° |
| 2026-05-04 23:47 | 55.60968 | -3.41269 | 6007 ft | 279 kts | 164° |
| 2026-05-04 23:48 | 55.59115 | -3.40267 | 6013 ft | 279 kts | 164° |
| 2026-05-04 23:48 | 55.57255 | -3.39262 | 6010 ft | 279 kts | 164° |
| 2026-05-04 23:48 | 55.55998 | -3.38584 | 6011 ft | 280 kts | 164° |
| 2026-05-04 23:48 | 55.53527 | -3.37253 | 6015 ft | 281 kts | 164° |
| 2026-05-04 23:49 | 55.52268 | -3.36569 | 6000 ft | 281 kts | 162° |
| 2026-05-04 23:49 | 55.50595 | -3.34835 | 6002 ft | 281 kts | 134° |
| 2026-05-04 23:49 | 55.49566 | -3.31930 | 6187 ft | 284 kts | 107° |
| 2026-05-04 23:49 | 55.49136 | -3.28514 | 7119 ft | 285 kts | 99° |
| 2026-05-04 23:50 | 55.48781 | -3.25053 | 8138 ft | 290 kts | 99° |
| 2026-05-04 23:50 | 55.48422 | -3.21522 | 9136 ft | 295 kts | 99° |
| 2026-05-04 23:50 | 55.48052 | -3.17922 | 9760 ft | 302 kts | 99° |
| 2026-05-04 23:50 | 55.47672 | -3.14284 | 10003 ft | 304 kts | 100° |
| 2026-05-04 23:51 | 55.47281 | -3.10594 | 10000 ft | 307 kts | 100° |
| 2026-05-04 23:51 | 55.46887 | -3.06911 | 9999 ft | 305 kts | 100° |
| 2026-05-04 23:51 | 55.46492 | -3.03242 | 10000 ft | 305 kts | 100° |
| 2026-05-04 23:51 | 55.46035 | -2.99605 | 10097 ft | 300 kts | 109° |
| 2026-05-04 23:52 | 55.45186 | -2.96294 | 10773 ft | 307 kts | 118° |
| 2026-05-04 23:52 | 55.44125 | -2.92955 | 11532 ft | 315 kts | 121° |
| 2026-05-04 23:52 | 55.43014 | -2.89592 | 12429 ft | 320 kts | 121° |
| 2026-05-04 23:52 | 55.41893 | -2.86181 | 13350 ft | 324 kts | 121° |
| 2026-05-04 23:53 | 55.40754 | -2.82667 | 14251 ft | 328 kts | 121° |
| 2026-05-04 23:53 | 55.39644 | -2.79202 | 15089 ft | 330 kts | 121° |
| 2026-05-04 23:53 | 55.38519 | -2.75672 | 15964 ft | 332 kts | 121° |
| 2026-05-04 23:53 | 55.37380 | -2.72097 | 16707 ft | 340 kts | 121° |
| 2026-05-04 23:54 | 55.36197 | -2.68392 | 17229 ft | 354 kts | 121° |
| 2026-05-04 23:54 | 55.34969 | -2.64565 | 17782 ft | 366 kts | 121° |
| 2026-05-04 23:54 | 55.33696 | -2.60615 | 18342 ft | 377 kts | 121° |
| 2026-05-04 23:54 | 55.32387 | -2.56557 | 18827 ft | 387 kts | 121° |
| 2026-05-04 23:55 | 55.31039 | -2.52382 | 19316 ft | 397 kts | 121° |
| 2026-05-04 23:55 | 55.29659 | -2.48120 | 19808 ft | 406 kts | 122° |
| 2026-05-04 23:55 | 55.26054 | -2.40397 | 20811 ft | 415 kts | 142° |
| 2026-05-04 23:56 | 55.23766 | -2.37262 | 21349 ft | 420 kts | 146° |
| 2026-05-04 23:56 | 55.21408 | -2.34182 | 21864 ft | 425 kts | 146° |
| 2026-05-04 23:56 | 55.19019 | -2.31094 | 22391 ft | 428 kts | 146° |
| 2026-05-04 23:56 | 55.16616 | -2.27984 | 22937 ft | 431 kts | 146° |
| 2026-05-04 23:57 | 55.14202 | -2.24843 | 23480 ft | 434 kts | 146° |
| 2026-05-04 23:57 | 55.11781 | -2.21676 | 23961 ft | 435 kts | 146° |
| 2026-05-04 23:57 | 55.09356 | -2.18494 | 24436 ft | 437 kts | 146° |
| 2026-05-04 23:57 | 55.06925 | -2.15299 | 24912 ft | 439 kts | 145° |
| 2026-05-04 23:58 | 55.04478 | -2.12085 | 25396 ft | 441 kts | 145° |
| 2026-05-04 23:58 | 55.02030 | -2.08871 | 25893 ft | 443 kts | 145° |
| 2026-05-04 23:58 | 54.99562 | -2.05637 | 26394 ft | 444 kts | 145° |
| 2026-05-04 23:58 | 54.97082 | -2.02393 | 26905 ft | 446 kts | 145° |
| 2026-05-04 23:59 | 54.94601 | -1.99152 | 27418 ft | 447 kts | 145° |
| 2026-05-04 23:59 | 54.92114 | -1.95909 | 27949 ft | 447 kts | 145° |
| 2026-05-04 23:59 | 54.89625 | -1.92669 | 28493 ft | 447 kts | 145° |
| 2026-05-04 23:59 | 54.87169 | -1.89477 | 29027 ft | 447 kts | 145° |
| 2026-05-05 00:00 | 54.84680 | -1.86247 | 29580 ft | 446 kts | 145° |
| 2026-05-05 00:00 | 54.83000 | -1.84070 | 29937 ft | 447 kts | 145° |
| 2026-05-05 00:00 | 54.79644 | -1.79731 | 29983 ft | 462 kts | 145° |
| 2026-05-05 00:01 | 54.74380 | -1.72946 | 29996 ft | 481 kts | 145° |
| 2026-05-05 00:01 | 54.68960 | -1.65976 | 29988 ft | 487 kts | 144° |
| 2026-05-05 00:02 | 54.63534 | -1.59016 | 29985 ft | 484 kts | 144° |
| 2026-05-05 00:02 | 54.58133 | -1.52117 | 29997 ft | 482 kts | 144° |
| 2026-05-05 00:03 | 54.52739 | -1.45250 | 29996 ft | 481 kts | 144° |
| 2026-05-05 00:03 | 54.47362 | -1.38430 | 29998 ft | 480 kts | 144° |
| 2026-05-05 00:04 | 54.41996 | -1.31645 | 29994 ft | 478 kts | 144° |
| 2026-05-05 00:04 | 54.36616 | -1.24867 | 30004 ft | 483 kts | 144° |
| 2026-05-05 00:05 | 54.31179 | -1.18039 | 29982 ft | 486 kts | 144° |
| 2026-05-05 00:05 | 54.25731 | -1.11218 | 29994 ft | 485 kts | 144° |
| 2026-05-05 00:06 | 54.20311 | -1.04456 | 29994 ft | 484 kts | 144° |
| 2026-05-05 00:06 | 54.14870 | -0.97689 | 29993 ft | 484 kts | 144° |
| 2026-05-05 00:07 | 54.09434 | -0.90951 | 29987 ft | 483 kts | 144° |
| 2026-05-05 00:07 | 54.04003 | -0.84239 | 29986 ft | 482 kts | 144° |
| 2026-05-05 00:08 | 53.98533 | -0.77659 | 29980 ft | 481 kts | 145° |
| 2026-05-05 00:08 | 53.93008 | -0.71231 | 29980 ft | 481 kts | 146° |
| 2026-05-05 00:09 | 53.87490 | -0.64814 | 29980 ft | 480 kts | 145° |
| 2026-05-05 00:09 | 53.81990 | -0.58404 | 29985 ft | 480 kts | 145° |
| 2026-05-05 00:10 | 53.76494 | -0.52011 | 29992 ft | 480 kts | 145° |
| 2026-05-05 00:10 | 53.70988 | -0.45628 | 29996 ft | 480 kts | 145° |
| 2026-05-05 00:11 | 53.65480 | -0.39294 | 30000 ft | 479 kts | 145° |
| 2026-05-05 00:11 | 53.59974 | -0.32980 | 30000 ft | 478 kts | 143° |
| 2026-05-05 00:12 | 53.55224 | -0.25258 | 30000 ft | 475 kts | 127° |
| 2026-05-05 00:12 | 53.51296 | -0.16316 | 29992 ft | 475 kts | 126° |
| 2026-05-05 00:13 | 53.47371 | -0.07410 | 29997 ft | 474 kts | 126° |
| 2026-05-05 00:13 | 53.43412 | 0.01412 | 29995 ft | 473 kts | 126° |
| 2026-05-05 00:14 | 53.39432 | 0.10197 | 29989 ft | 473 kts | 127° |
| 2026-05-05 00:14 | 53.35448 | 0.18962 | 29990 ft | 473 kts | 127° |